createdAt,value
2018-12-03T00:00:09.162Z,0
2018-12-03T00:01:08.644Z,0
2018-12-03T00:02:09.179Z,0
2018-12-03T00:03:08.965Z,0
2018-12-03T00:04:08.970Z,0
2018-12-03T00:05:09.283Z,0
2018-12-03T00:06:09.290Z,0
2018-12-03T00:07:09.279Z,0
2018-12-03T00:08:09.331Z,0
2018-12-03T00:09:09.067Z,0
2018-12-03T00:10:09.378Z,0
2018-12-03T00:11:09.363Z,0
2018-12-03T00:12:09.392Z,0
2018-12-03T00:13:09.427Z,0
2018-12-03T00:14:09.183Z,0
2018-12-03T00:15:09.463Z,0
2018-12-03T00:16:09.217Z,0
2018-12-03T00:17:09.502Z,0
2018-12-03T00:18:09.540Z,0
2018-12-03T00:19:09.315Z,0
2018-12-03T00:20:09.574Z,0
2018-12-03T00:21:09.834Z,0
2018-12-03T00:22:09.355Z,0
2018-12-03T00:23:09.406Z,0
2018-12-03T00:24:09.652Z,0
2018-12-03T00:25:09.681Z,0
2018-12-03T00:26:09.454Z,0
2018-12-03T00:27:09.444Z,0
2018-12-03T00:28:09.735Z,0
2018-12-03T00:29:09.753Z,0
2018-12-03T00:30:09.255Z,0
2018-12-03T00:31:10.078Z,0
2018-12-03T00:32:09.573Z,0
2018-12-03T00:33:09.850Z,0
2018-12-03T00:34:09.608Z,0
2018-12-03T00:35:10.147Z,0
2018-12-03T00:36:09.655Z,0
2018-12-03T00:37:09.669Z,0
2018-12-03T00:38:10.274Z,0
2018-12-03T00:39:09.704Z,0
2018-12-03T00:40:09.735Z,0
2018-12-03T00:41:10.012Z,0
2018-12-03T00:42:09.772Z,0
2018-12-03T00:43:10.069Z,0
2018-12-03T00:44:10.080Z,0
2018-12-03T00:45:10.113Z,0
2018-12-03T00:46:09.602Z,0
2018-12-03T00:47:10.135Z,0
2018-12-03T00:48:10.161Z,0
2018-12-03T00:49:09.662Z,0
2018-12-03T00:50:10.004Z,0
2018-12-03T00:51:09.705Z,0
2018-12-03T00:52:09.999Z,0
2018-12-03T00:53:10.271Z,0
2018-12-03T00:54:09.776Z,0
2018-12-03T00:55:10.054Z,0
2018-12-03T00:56:10.365Z,0
2018-12-03T00:57:10.357Z,0
2018-12-03T00:58:10.114Z,0
2018-12-03T00:59:09.877Z,0
2018-12-03T01:00:10.161Z,0
2018-12-03T01:01:10.470Z,0
2018-12-03T01:02:09.953Z,0
2018-12-03T01:03:10.218Z,0
2018-12-03T01:04:10.773Z,0
2018-12-03T01:05:10.261Z,0
2018-12-03T01:06:10.297Z,0
2018-12-03T01:07:10.577Z,0
2018-12-03T01:08:10.597Z,0
2018-12-03T01:09:10.861Z,0
2018-12-03T01:10:10.367Z,0
2018-12-03T01:11:10.134Z,0
2018-12-03T01:12:10.418Z,0
2018-12-03T01:13:10.961Z,0
2018-12-03T01:14:11.062Z,0
2018-12-03T01:15:10.998Z,0
2018-12-03T01:16:10.523Z,0
2018-12-03T01:17:10.515Z,0
2018-12-03T01:18:10.549Z,0
2018-12-03T01:19:10.575Z,0
2018-12-03T01:20:10.340Z,0
2018-12-03T01:21:10.867Z,0
2018-12-03T01:22:10.904Z,0
2018-12-03T01:23:10.920Z,0
2018-12-03T01:24:10.411Z,0
2018-12-03T01:25:10.699Z,0
2018-12-03T01:26:10.970Z,0
2018-12-03T01:27:10.730Z,0
2018-12-03T01:28:10.754Z,0
2018-12-03T01:29:11.305Z,0
2018-12-03T01:30:11.060Z,0
2018-12-03T01:31:11.080Z,0
2018-12-03T01:32:10.592Z,0
2018-12-03T01:33:11.126Z,0
2018-12-03T01:34:10.617Z,0
2018-12-03T01:35:10.911Z,0
2018-12-03T01:36:11.468Z,0
2018-12-03T01:37:11.213Z,0
2018-12-03T01:38:11.036Z,0
2018-12-03T01:39:10.733Z,0
2018-12-03T01:40:11.022Z,0
2018-12-03T01:41:11.040Z,0
2018-12-03T01:42:10.802Z,0
2018-12-03T01:43:11.082Z,0
2018-12-03T01:44:10.851Z,0
2018-12-03T01:45:11.119Z,0
2018-12-03T01:46:11.397Z,0
2018-12-03T01:47:11.179Z,0
2018-12-03T01:48:11.184Z,0
2018-12-03T01:49:10.959Z,0
2018-12-03T01:50:11.004Z,0
2018-12-03T01:51:11.524Z,0
2018-12-03T01:52:11.551Z,0
2018-12-03T01:53:11.302Z,0
2018-12-03T01:54:11.316Z,0
2018-12-03T01:55:11.078Z,0
2018-12-03T01:56:11.620Z,0
2018-12-03T01:57:11.916Z,0
2018-12-03T01:58:11.395Z,0
2018-12-03T01:59:11.172Z,0
2018-12-03T02:00:11.459Z,0
2018-12-03T02:01:11.469Z,0
2018-12-03T02:02:12.001Z,0
2018-12-03T02:03:11.512Z,0
2018-12-03T02:04:11.536Z,0
2018-12-03T02:05:11.286Z,0
2018-12-03T02:06:11.316Z,0
2018-12-03T02:07:11.599Z,0
2018-12-03T02:08:11.605Z,0
2018-12-03T02:09:11.649Z,0
2018-12-03T02:10:12.189Z,0
2018-12-03T02:11:11.674Z,0
2018-12-03T02:12:11.962Z,0
2018-12-03T02:13:11.976Z,0
2018-12-03T02:14:11.767Z,0
2018-12-03T02:15:11.503Z,0
2018-12-03T02:16:11.780Z,0
2018-12-03T02:17:11.800Z,0
2018-12-03T02:18:11.882Z,0
2018-12-03T02:19:11.610Z,0
2018-12-03T02:20:12.121Z,0
2018-12-03T02:21:11.891Z,0
2018-12-03T02:22:12.182Z,0
2018-12-03T02:23:11.943Z,0
2018-12-03T02:24:12.206Z,0
2018-12-03T02:25:12.245Z,0
2018-12-03T02:26:12.003Z,0
2018-12-03T02:27:12.017Z,0
2018-12-03T02:28:11.787Z,0
2018-12-03T02:29:11.796Z,0
2018-12-03T02:30:12.097Z,0
2018-12-03T02:31:12.363Z,0
2018-12-03T02:32:12.399Z,0
2018-12-03T02:33:12.138Z,0
2018-12-03T02:34:12.693Z,0
2018-12-03T02:35:11.957Z,0
2018-12-03T02:36:12.466Z,0
2018-12-03T02:37:12.302Z,0
2018-12-03T02:38:12.266Z,0
2018-12-03T02:39:12.281Z,0
2018-12-03T02:40:12.370Z,0
2018-12-03T02:41:12.828Z,0
2018-12-03T02:42:12.849Z,0
2018-12-03T02:43:12.889Z,0
2018-12-03T02:44:12.406Z,0
2018-12-03T02:45:12.924Z,0
2018-12-03T02:46:12.417Z,0
2018-12-03T02:47:12.709Z,0
2018-12-03T02:48:13.020Z,0
2018-12-03T02:49:12.493Z,0
2018-12-03T02:50:12.754Z,0
2018-12-03T02:51:12.276Z,0
2018-12-03T02:52:13.086Z,0
2018-12-03T02:53:12.316Z,0
2018-12-03T02:54:12.871Z,0
2018-12-03T02:55:13.154Z,0
2018-12-03T02:56:12.636Z,0
2018-12-03T02:57:12.919Z,0
2018-12-03T02:58:12.954Z,0
2018-12-03T02:59:12.710Z,0
2018-12-03T03:00:13.005Z,0
2018-12-03T03:01:12.495Z,0
2018-12-03T03:02:12.518Z,0
2018-12-03T03:03:12.787Z,0
2018-12-03T03:04:12.552Z,0
2018-12-03T03:05:12.587Z,0
2018-12-03T03:06:12.848Z,0
2018-12-03T03:07:12.869Z,0
2018-12-03T03:08:12.982Z,0
2018-12-03T03:09:13.176Z,0
2018-12-03T03:10:12.946Z,0
2018-12-03T03:11:13.211Z,0
2018-12-03T03:12:12.971Z,0
2018-12-03T03:13:12.999Z,0
2018-12-03T03:14:12.757Z,0
2018-12-03T03:15:13.159Z,0
2018-12-03T03:16:13.310Z,0
2018-12-03T03:17:13.334Z,0
2018-12-03T03:18:13.369Z,0
2018-12-03T03:19:13.672Z,0
2018-12-03T03:20:13.669Z,0
2018-12-03T03:21:13.423Z,0
2018-12-03T03:22:13.206Z,0
2018-12-03T03:23:13.215Z,0
2018-12-03T03:24:13.743Z,0
2018-12-03T03:25:13.815Z,0
2018-12-03T03:26:13.288Z,0
2018-12-03T03:27:13.563Z,0
2018-12-03T03:28:13.583Z,0
2018-12-03T03:29:13.600Z,0
2018-12-03T03:30:13.375Z,0
2018-12-03T03:31:13.383Z,0
2018-12-03T03:32:13.678Z,0
2018-12-03T03:33:13.723Z,0
2018-12-03T03:34:13.447Z,0
2018-12-03T03:35:13.738Z,0
2018-12-03T03:36:13.496Z,0
2018-12-03T03:37:13.768Z,0
2018-12-03T03:38:13.522Z,0
2018-12-03T03:39:13.831Z,0
2018-12-03T03:40:13.571Z,0
2018-12-03T03:41:13.857Z,0
2018-12-03T03:42:13.374Z,0
2018-12-03T03:43:13.380Z,0
2018-12-03T03:44:13.650Z,0
2018-12-03T03:45:13.693Z,0
2018-12-03T03:46:13.687Z,0
2018-12-03T03:47:13.468Z,0
2018-12-03T03:48:14.023Z,0
2018-12-03T03:49:13.795Z,0
2018-12-03T03:50:13.792Z,0
2018-12-03T03:51:13.552Z,0
2018-12-03T03:52:13.832Z,0
2018-12-03T03:53:14.367Z,0
2018-12-03T03:54:13.867Z,0
2018-12-03T03:55:13.917Z,0
2018-12-03T03:56:13.911Z,0
2018-12-03T03:57:13.935Z,0
2018-12-03T03:58:13.976Z,0
2018-12-03T03:59:14.227Z,0
2018-12-03T04:00:14.321Z,0
2018-12-03T04:01:14.281Z,0
2018-12-03T04:02:14.298Z,0
2018-12-03T04:03:14.046Z,0
2018-12-03T04:04:13.814Z,0
2018-12-03T04:05:14.113Z,0
2018-12-03T04:06:14.653Z,0
2018-12-03T04:07:14.153Z,0
2018-12-03T04:08:13.900Z,0
2018-12-03T04:09:14.696Z,0
2018-12-03T04:10:13.969Z,0
2018-12-03T04:11:14.240Z,0
2018-12-03T04:12:14.530Z,0
2018-12-03T04:13:14.293Z,0
2018-12-03T04:14:14.572Z,0
2018-12-03T04:15:14.862Z,0
2018-12-03T04:16:14.585Z,0
2018-12-03T04:17:14.608Z,0
2018-12-03T04:18:14.628Z,0
2018-12-03T04:19:14.399Z,0
2018-12-03T04:20:14.707Z,0
2018-12-03T04:21:14.704Z,0
2018-12-03T04:22:14.205Z,0
2018-12-03T04:23:14.478Z,0
2018-12-03T04:24:14.785Z,0
2018-12-03T04:25:14.265Z,0
2018-12-03T04:26:14.546Z,0
2018-12-03T04:27:14.841Z,0
2018-12-03T04:28:14.600Z,0
2018-12-03T04:29:14.356Z,0
2018-12-03T04:30:14.642Z,0
2018-12-03T04:31:14.913Z,0
2018-12-03T04:32:14.417Z,0
2018-12-03T04:33:14.696Z,0
2018-12-03T04:34:14.742Z,0
2018-12-03T04:35:15.003Z,0
2018-12-03T04:36:15.269Z,0
2018-12-03T04:37:14.803Z,0
2018-12-03T04:38:14.560Z,0
2018-12-03T04:39:14.585Z,0
2018-12-03T04:40:14.587Z,0
2018-12-03T04:41:14.869Z,0
2018-12-03T04:42:14.882Z,0
2018-12-03T04:43:15.160Z,0
2018-12-03T04:44:15.197Z,0
2018-12-03T04:45:14.698Z,0
2018-12-03T04:46:14.982Z,0
2018-12-03T04:47:14.733Z,0
2018-12-03T04:48:15.001Z,0
2018-12-03T04:49:14.776Z,0
2018-12-03T04:50:14.792Z,0
2018-12-03T04:51:15.598Z,0
2018-12-03T04:52:15.095Z,0
2018-12-03T04:53:15.116Z,0
2018-12-03T04:54:15.148Z,0
2018-12-03T04:55:14.923Z,0
2018-12-03T04:56:15.434Z,0
2018-12-03T04:57:15.224Z,0
2018-12-03T04:58:15.743Z,0
2018-12-03T04:59:15.503Z,0
2018-12-03T05:00:15.780Z,0
2018-12-03T05:01:15.540Z,0
2018-12-03T05:02:15.313Z,0
2018-12-03T05:03:15.087Z,0
2018-12-03T05:04:15.101Z,0
2018-12-03T05:05:15.625Z,0
2018-12-03T05:06:15.129Z,0
2018-12-03T05:07:15.468Z,0
2018-12-03T05:08:15.427Z,0
2018-12-03T05:09:15.724Z,0
2018-12-03T05:10:16.057Z,0
2018-12-03T05:11:15.505Z,0
2018-12-03T05:12:15.271Z,0
2018-12-03T05:13:15.294Z,0
2018-12-03T05:14:15.581Z,0
2018-12-03T05:15:15.860Z,0
2018-12-03T05:16:15.879Z,0
2018-12-03T05:17:15.913Z,0
2018-12-03T05:18:15.680Z,0
2018-12-03T05:19:15.937Z,0
2018-12-03T05:20:15.963Z,0
2018-12-03T05:21:15.478Z,0
2018-12-03T05:22:15.736Z,0
2018-12-03T05:23:15.762Z,0
2018-12-03T05:24:15.786Z,0
2018-12-03T05:25:21.374Z,0
2018-12-03T05:26:16.074Z,0
2018-12-03T05:27:15.848Z,0
2018-12-03T05:28:15.600Z,0
2018-12-03T05:29:16.134Z,0
2018-12-03T05:30:15.904Z,0
2018-12-03T05:31:16.480Z,0
2018-12-03T05:32:15.942Z,0
2018-12-03T05:33:15.987Z,0
2018-12-03T05:34:15.999Z,0
2018-12-03T05:35:16.030Z,0
2018-12-03T05:36:16.035Z,0
2018-12-03T05:37:16.310Z,0
2018-12-03T05:38:16.340Z,0
2018-12-03T05:39:16.357Z,0
2018-12-03T05:40:15.864Z,0
2018-12-03T05:41:15.880Z,0
2018-12-03T05:42:15.907Z,0
2018-12-03T05:43:16.199Z,0
2018-12-03T05:44:16.207Z,0
2018-12-03T05:45:16.494Z,0
2018-12-03T05:46:16.523Z,0
2018-12-03T05:47:16.002Z,0
2018-12-03T05:48:16.299Z,0
2018-12-03T05:49:16.320Z,0
2018-12-03T05:50:16.599Z,0
2018-12-03T05:51:16.353Z,0
2018-12-03T05:52:16.626Z,0
2018-12-03T05:53:16.151Z,0
2018-12-03T05:54:16.826Z,0
2018-12-03T05:55:16.439Z,0
2018-12-03T05:56:16.474Z,0
2018-12-03T05:57:16.483Z,0
2018-12-03T05:58:16.248Z,0
2018-12-03T05:59:16.521Z,0
2018-12-03T06:00:16.551Z,0
2018-12-03T06:01:16.302Z,0
2018-12-03T06:02:16.595Z,0
2018-12-03T06:03:16.362Z,0
2018-12-03T06:04:16.885Z,0
2018-12-03T06:05:16.389Z,0
2018-12-03T06:06:16.408Z,0
2018-12-03T06:07:16.703Z,0
2018-12-03T06:08:16.965Z,0
2018-12-03T06:09:16.746Z,0
2018-12-03T06:10:17.044Z,0
2018-12-03T06:11:17.044Z,0
2018-12-03T06:12:16.865Z,0
2018-12-03T06:13:16.827Z,0
2018-12-03T06:14:16.586Z,0
2018-12-03T06:15:17.118Z,0
2018-12-03T06:16:17.396Z,0
2018-12-03T06:17:17.174Z,0
2018-12-03T06:18:16.918Z,0
2018-12-03T06:19:16.952Z,0
2018-12-03T06:20:16.713Z,0
2018-12-03T06:21:16.997Z,0
2018-12-03T06:22:16.761Z,0
2018-12-03T06:23:17.027Z,0
2018-12-03T06:24:16.807Z,0
2018-12-03T06:25:17.364Z,0
2018-12-03T06:26:16.844Z,0
2018-12-03T06:27:17.109Z,0
2018-12-03T06:28:16.902Z,0
2018-12-03T06:29:17.183Z,0
2018-12-03T06:30:17.445Z,0
2018-12-03T06:31:17.460Z,0
2018-12-03T06:32:17.518Z,0
2018-12-03T06:33:16.987Z,0
2018-12-03T06:34:17.543Z,0
2018-12-03T06:35:17.285Z,0
2018-12-03T06:36:17.304Z,0
2018-12-03T06:37:17.340Z,0
2018-12-03T06:38:21.932Z,0
2018-12-03T06:39:17.368Z,0
2018-12-03T06:40:17.668Z,0
2018-12-03T06:41:17.699Z,0
2018-12-03T06:42:17.180Z,0
2018-12-03T06:43:17.738Z,0
2018-12-03T06:44:17.474Z,0
2018-12-03T06:45:17.254Z,0
2018-12-03T06:46:17.798Z,0
2018-12-03T06:47:17.799Z,0
2018-12-03T06:48:17.319Z,0
2018-12-03T06:49:17.622Z,0
2018-12-03T06:50:17.617Z,0
2018-12-03T06:51:17.634Z,0
2018-12-03T06:52:17.660Z,4
2018-12-03T06:53:17.420Z,4
2018-12-03T06:54:18.221Z,8
2018-12-03T06:55:18.299Z,4
2018-12-03T06:56:17.737Z,8
2018-12-03T06:57:18.282Z,8
2018-12-03T06:58:17.772Z,8
2018-12-03T06:59:18.085Z,4
2018-12-03T07:00:18.096Z,8
2018-12-03T07:01:17.843Z,4
2018-12-03T07:02:17.617Z,8
2018-12-03T07:03:17.627Z,16
2018-12-03T07:04:17.899Z,12
2018-12-03T07:05:17.928Z,16
2018-12-03T07:06:17.958Z,16
2018-12-03T07:07:18.222Z,20
2018-12-03T07:08:17.994Z,12
2018-12-03T07:09:18.016Z,16
2018-12-03T07:10:18.303Z,24
2018-12-03T07:11:17.805Z,20
2018-12-03T07:12:18.595Z,20
2018-12-03T07:13:18.101Z,24
2018-12-03T07:14:18.117Z,32
2018-12-03T07:15:17.904Z,32
2018-12-03T07:16:18.422Z,44
2018-12-03T07:17:19.598Z,44
2018-12-03T07:18:18.197Z,48
2018-12-03T07:19:17.973Z,48
2018-12-03T07:20:18.780Z,60
2018-12-03T07:21:18.522Z,68
2018-12-03T07:22:18.393Z,76
2018-12-03T07:23:18.614Z,84
2018-12-03T07:24:18.580Z,92
2018-12-03T07:25:18.346Z,96
2018-12-03T07:26:18.376Z,100
2018-12-03T07:27:18.403Z,96
2018-12-03T07:28:18.424Z,112
2018-12-03T07:29:18.463Z,112
2018-12-03T07:30:18.733Z,124
2018-12-03T07:31:18.221Z,128
2018-12-03T07:32:19.082Z,136
2018-12-03T07:33:18.255Z,136
2018-12-03T07:34:18.281Z,136
2018-12-03T07:35:18.571Z,148
2018-12-03T07:36:18.835Z,148
2018-12-03T07:37:18.854Z,148
2018-12-03T07:38:18.882Z,124
2018-12-03T07:39:18.383Z,120
2018-12-03T07:40:18.913Z,124
2018-12-03T07:41:18.428Z,140
2018-12-03T07:42:18.706Z,168
2018-12-03T07:43:18.732Z,188
2018-12-03T07:44:19.015Z,208
2018-12-03T07:45:19.028Z,220
2018-12-03T07:46:18.814Z,224
2018-12-03T07:47:18.547Z,236
2018-12-03T07:48:19.366Z,244
2018-12-03T07:49:19.116Z,252
2018-12-03T07:50:19.140Z,260
2018-12-03T07:51:19.150Z,264
2018-12-03T07:52:19.182Z,268
2018-12-03T07:53:18.936Z,276
2018-12-03T07:54:19.661Z,280
2018-12-03T07:55:18.989Z,288
2018-12-03T07:56:19.275Z,292
2018-12-03T07:57:18.763Z,296
2018-12-03T07:58:18.793Z,308
2018-12-03T07:59:19.338Z,344
2018-12-03T08:00:19.094Z,300
2018-12-03T08:01:19.113Z,324
2018-12-03T08:02:18.872Z,312
2018-12-03T08:03:19.417Z,316
2018-12-03T08:04:19.441Z,308
2018-12-03T08:05:19.452Z,304
2018-12-03T08:06:19.465Z,316
2018-12-03T08:07:19.232Z,332
2018-12-03T08:08:19.270Z,316
2018-12-03T08:09:19.276Z,304
2018-12-03T08:10:19.572Z,284
2018-12-03T08:11:19.578Z,288
2018-12-03T08:12:19.853Z,304
2018-12-03T08:13:19.620Z,296
2018-12-03T08:14:19.387Z,280
2018-12-03T08:15:19.668Z,260
2018-12-03T08:16:19.698Z,252
2018-12-03T08:17:19.448Z,264
2018-12-03T08:18:19.462Z,284
2018-12-03T08:19:19.762Z,292
2018-12-03T08:20:19.781Z,280
2018-12-03T08:21:19.538Z,296
2018-12-03T08:22:19.805Z,320
2018-12-03T08:23:19.322Z,360
2018-12-03T08:24:19.854Z,388
2018-12-03T08:25:19.879Z,432
2018-12-03T08:26:19.690Z,448
2018-12-03T08:27:19.655Z,408
2018-12-03T08:28:19.423Z,384
2018-12-03T08:29:19.718Z,372
2018-12-03T08:30:19.758Z,352
2018-12-03T08:31:20.285Z,360
2018-12-03T08:32:19.781Z,392
2018-12-03T08:33:19.800Z,456
2018-12-03T08:34:19.807Z,464
2018-12-03T08:35:19.831Z,448
2018-12-03T08:36:19.851Z,424
2018-12-03T08:37:19.623Z,408
2018-12-03T08:38:19.915Z,420
2018-12-03T08:39:19.919Z,468
2018-12-03T08:40:19.685Z,516
2018-12-03T08:41:20.214Z,520
2018-12-03T08:42:19.981Z,468
2018-12-03T08:43:20.256Z,436
2018-12-03T08:44:20.299Z,408
2018-12-03T08:45:19.794Z,396
2018-12-03T08:46:19.808Z,392
2018-12-03T08:47:20.595Z,412
2018-12-03T08:48:20.616Z,428
2018-12-03T08:49:21.275Z,448
2018-12-03T08:50:20.421Z,464
2018-12-03T08:51:20.432Z,516
2018-12-03T08:52:20.196Z,528
2018-12-03T08:53:20.223Z,512
2018-12-03T08:54:20.240Z,524
2018-12-03T08:55:20.260Z,548
2018-12-03T08:56:20.335Z,560
2018-12-03T08:57:20.030Z,592
2018-12-03T08:58:20.329Z,504
2018-12-03T08:59:20.591Z,680
2018-12-03T09:00:21.126Z,864
2018-12-03T09:01:20.120Z,540
2018-12-03T09:02:20.934Z,536
2018-12-03T09:03:20.690Z,472
2018-12-03T09:04:20.960Z,472
2018-12-03T09:05:20.472Z,412
2018-12-03T09:06:20.500Z,416
2018-12-03T09:07:20.561Z,396
2018-12-03T09:08:20.798Z,388
2018-12-03T09:09:21.085Z,368
2018-12-03T09:10:20.861Z,360
2018-12-03T09:11:20.344Z,368
2018-12-03T09:12:20.610Z,356
2018-12-03T09:13:20.904Z,352
2018-12-03T09:14:20.652Z,388
2018-12-03T09:15:20.415Z,396
2018-12-03T09:16:20.767Z,396
2018-12-03T09:17:20.731Z,412
2018-12-03T09:18:21.017Z,420
2018-12-03T09:19:20.762Z,428
2018-12-03T09:20:20.786Z,440
2018-12-03T09:21:21.095Z,444
2018-12-03T09:22:20.572Z,452
2018-12-03T09:23:21.122Z,464
2018-12-03T09:24:20.863Z,464
2018-12-03T09:25:21.155Z,464
2018-12-03T09:26:20.905Z,464
2018-12-03T09:27:20.687Z,464
2018-12-03T09:28:21.212Z,464
2018-12-03T09:29:21.487Z,464
2018-12-03T09:30:21.006Z,476
2018-12-03T09:31:21.280Z,488
2018-12-03T09:32:21.044Z,504
2018-12-03T09:33:21.066Z,512
2018-12-03T09:34:21.358Z,532
2018-12-03T09:35:21.367Z,584
2018-12-03T09:36:21.126Z,612
2018-12-03T09:37:20.890Z,620
2018-12-03T09:38:21.182Z,736
2018-12-03T09:39:21.186Z,748
2018-12-03T09:40:21.481Z,816
2018-12-03T09:41:21.238Z,852
2018-12-03T09:42:21.262Z,908
2018-12-03T09:43:21.261Z,860
2018-12-03T09:44:21.300Z,780
2018-12-03T09:45:21.060Z,664
2018-12-03T09:46:21.859Z,820
2018-12-03T09:47:21.625Z,860
2018-12-03T09:48:21.634Z,664
2018-12-03T09:49:21.139Z,620
2018-12-03T09:50:21.694Z,608
2018-12-03T09:51:21.454Z,596
2018-12-03T09:52:21.464Z,664
2018-12-03T09:53:21.496Z,528
2018-12-03T09:54:21.522Z,568
2018-12-03T09:55:21.786Z,568
2018-12-03T09:56:21.821Z,388
2018-12-03T09:57:22.099Z,348
2018-12-03T09:58:21.594Z,468
2018-12-03T09:59:21.611Z,448
2018-12-03T10:00:21.635Z,332
2018-12-03T10:01:21.422Z,356
2018-12-03T10:02:21.674Z,436
2018-12-03T10:03:21.973Z,652
2018-12-03T10:04:21.481Z,908
2018-12-03T10:05:21.736Z,1476
2018-12-03T10:06:21.502Z,1904
2018-12-03T10:07:21.784Z,2692
2018-12-03T10:08:22.082Z,2032
2018-12-03T10:09:22.338Z,2068
2018-12-03T10:10:21.866Z,1304
2018-12-03T10:11:22.150Z,1192
2018-12-03T10:12:24.968Z,1076
2018-12-03T10:13:21.906Z,1184
2018-12-03T10:14:22.187Z,1284
2018-12-03T10:15:21.957Z,1412
2018-12-03T10:16:21.712Z,1212
2018-12-03T10:17:22.260Z,1228
2018-12-03T10:18:22.298Z,1240
2018-12-03T10:19:22.045Z,1272
2018-12-03T10:20:22.061Z,1268
2018-12-03T10:21:22.084Z,1264
2018-12-03T10:22:21.851Z,1280
2018-12-03T10:23:22.128Z,1384
2018-12-03T10:24:22.408Z,1544
2018-12-03T10:25:22.177Z,1392
2018-12-03T10:26:21.947Z,1196
2018-12-03T10:27:21.945Z,1124
2018-12-03T10:28:22.507Z,1208
2018-12-03T10:29:22.523Z,1332
2018-12-03T10:30:22.795Z,1216
2018-12-03T10:31:22.039Z,1224
2018-12-03T10:32:22.061Z,1236
2018-12-03T10:33:22.865Z,1244
2018-12-03T10:34:22.617Z,1188
2018-12-03T10:35:22.650Z,1168
2018-12-03T10:36:22.420Z,1140
2018-12-03T10:37:22.425Z,1196
2018-12-03T10:38:22.454Z,1208
2018-12-03T10:39:22.737Z,1220
2018-12-03T10:40:22.488Z,1244
2018-12-03T10:41:22.497Z,1272
2018-12-03T10:42:22.815Z,1304
2018-12-03T10:43:22.573Z,1316
2018-12-03T10:44:22.827Z,1256
2018-12-03T10:45:28.507Z,1272
2018-12-03T10:46:22.361Z,1360
2018-12-03T10:47:22.651Z,1348
2018-12-03T10:48:23.184Z,1296
2018-12-03T10:49:22.689Z,1208
2018-12-03T10:50:26.868Z,1100
2018-12-03T10:51:22.991Z,928
2018-12-03T10:52:22.757Z,740
2018-12-03T10:53:23.014Z,488
2018-12-03T10:54:22.792Z,548
2018-12-03T10:55:22.823Z,480
2018-12-03T10:56:24.358Z,392
2018-12-03T10:57:22.844Z,452
2018-12-03T10:58:23.139Z,588
2018-12-03T10:59:22.641Z,704
2018-12-03T11:00:22.928Z,540
2018-12-03T11:01:23.462Z,588
2018-12-03T11:02:22.965Z,444
2018-12-03T11:03:23.242Z,364
2018-12-03T11:04:22.751Z,300
2018-12-03T11:05:22.783Z,468
2018-12-03T11:06:22.797Z,532
2018-12-03T11:07:23.080Z,472
2018-12-03T11:08:23.607Z,476
2018-12-03T11:09:23.111Z,620
2018-12-03T11:10:22.884Z,788
2018-12-03T11:11:23.156Z,1020
2018-12-03T11:12:23.439Z,992
2018-12-03T11:13:22.932Z,1012
2018-12-03T11:14:23.481Z,1040
2018-12-03T11:15:23.249Z,776
2018-12-03T11:16:23.267Z,756
2018-12-03T11:17:23.548Z,824
2018-12-03T11:18:23.300Z,868
2018-12-03T11:19:23.330Z,968
2018-12-03T11:20:23.386Z,912
2018-12-03T11:21:24.287Z,844
2018-12-03T11:22:23.655Z,884
2018-12-03T11:23:23.412Z,860
2018-12-03T11:24:23.165Z,964
2018-12-03T11:25:23.718Z,928
2018-12-03T11:26:24.006Z,936
2018-12-03T11:27:23.747Z,892
2018-12-03T11:28:23.777Z,984
2018-12-03T11:29:23.796Z,1040
2018-12-03T11:30:24.100Z,1484
2018-12-03T11:31:23.834Z,1308
2018-12-03T11:32:23.601Z,1404
2018-12-03T11:33:23.896Z,1568
2018-12-03T11:34:23.719Z,1288
2018-12-03T11:35:24.204Z,1256
2018-12-03T11:36:23.690Z,1256
2018-12-03T11:37:23.720Z,1332
2018-12-03T11:38:23.478Z,1232
2018-12-03T11:39:24.011Z,1072
2018-12-03T11:40:23.791Z,1020
2018-12-03T11:41:23.534Z,960
2018-12-03T11:42:23.561Z,972
2018-12-03T11:43:23.858Z,1120
2018-12-03T11:44:23.855Z,1192
2018-12-03T11:45:23.892Z,1204
2018-12-03T11:46:23.913Z,1144
2018-12-03T11:47:23.950Z,1076
2018-12-03T11:48:24.478Z,1032
2018-12-03T11:49:23.963Z,988
2018-12-03T11:50:23.998Z,972
2018-12-03T11:51:24.301Z,972
2018-12-03T11:52:24.338Z,1016
2018-12-03T11:53:25.199Z,1060
2018-12-03T11:54:24.067Z,1092
2018-12-03T11:55:24.621Z,1040
2018-12-03T11:56:24.369Z,944
2018-12-03T11:57:24.136Z,920
2018-12-03T11:58:24.172Z,884
2018-12-03T11:59:24.442Z,944
2018-12-03T12:00:23.953Z,972
2018-12-03T12:01:24.228Z,1028
2018-12-03T12:02:24.246Z,1068
2018-12-03T12:03:24.533Z,1136
2018-12-03T12:04:24.294Z,1180
2018-12-03T12:05:24.323Z,1080
2018-12-03T12:06:24.351Z,1024
2018-12-03T12:07:24.370Z,1052
2018-12-03T12:08:25.287Z,1008
2018-12-03T12:09:27.782Z,1048
2018-12-03T12:10:24.682Z,1104
2018-12-03T12:11:24.695Z,1188
2018-12-03T12:12:24.228Z,1236
2018-12-03T12:13:24.747Z,1260
2018-12-03T12:14:24.763Z,1260
2018-12-03T12:15:24.534Z,1228
2018-12-03T12:16:24.695Z,1228
2018-12-03T12:17:24.575Z,1280
2018-12-03T12:18:24.350Z,1152
2018-12-03T12:19:24.879Z,1220
2018-12-03T12:20:24.910Z,1104
2018-12-03T12:21:24.396Z,1080
2018-12-03T12:22:24.687Z,1092
2018-12-03T12:23:24.689Z,1044
2018-12-03T12:24:24.470Z,916
2018-12-03T12:25:25.272Z,796
2018-12-03T12:26:24.767Z,684
2018-12-03T12:27:24.791Z,640
2018-12-03T12:28:25.078Z,648
2018-12-03T12:29:25.079Z,628
2018-12-03T12:30:24.864Z,612
2018-12-03T12:31:24.869Z,556
2018-12-03T12:32:25.409Z,536
2018-12-03T12:33:24.992Z,512
2018-12-03T12:34:24.670Z,488
2018-12-03T12:35:24.966Z,524
2018-12-03T12:36:25.236Z,512
2018-12-03T12:37:25.510Z,488
2018-12-03T12:38:24.759Z,448
2018-12-03T12:39:25.044Z,456
2018-12-03T12:40:24.804Z,452
2018-12-03T12:41:25.081Z,480
2018-12-03T12:42:25.366Z,372
2018-12-03T12:43:25.391Z,456
2018-12-03T12:44:24.907Z,492
2018-12-03T12:45:24.913Z,680
2018-12-03T12:46:25.201Z,688
2018-12-03T12:47:25.478Z,696
2018-12-03T12:48:25.496Z,580
2018-12-03T12:49:25.526Z,472
2018-12-03T12:50:25.274Z,580
2018-12-03T12:51:25.807Z,656
2018-12-03T12:52:25.836Z,884
2018-12-03T12:53:25.085Z,860
2018-12-03T12:54:25.624Z,736
2018-12-03T12:55:25.121Z,600
2018-12-03T12:56:25.166Z,648
2018-12-03T12:57:25.420Z,704
2018-12-03T12:58:25.506Z,820
2018-12-03T12:59:25.484Z,596
2018-12-03T13:00:25.749Z,632
2018-12-03T13:01:25.531Z,676
2018-12-03T13:02:25.788Z,528
2018-12-03T13:03:25.294Z,616
2018-12-03T13:04:25.842Z,660
2018-12-03T13:05:30.942Z,456
2018-12-03T13:06:25.882Z,448
2018-12-03T13:07:25.646Z,468
2018-12-03T13:08:25.935Z,564
2018-12-03T13:09:25.943Z,616
2018-12-03T13:10:25.747Z,496
2018-12-03T13:11:25.463Z,564
2018-12-03T13:12:25.494Z,404
2018-12-03T13:13:25.525Z,296
2018-12-03T13:14:25.785Z,308
2018-12-03T13:15:25.559Z,292
2018-12-03T13:16:25.848Z,244
2018-12-03T13:17:25.607Z,216
2018-12-03T13:18:25.876Z,292
2018-12-03T13:19:25.647Z,284
2018-12-03T13:20:26.176Z,456
2018-12-03T13:21:26.455Z,612
2018-12-03T13:22:30.287Z,608
2018-12-03T13:23:26.273Z,568
2018-12-03T13:24:26.016Z,536
2018-12-03T13:25:25.755Z,532
2018-12-03T13:26:26.055Z,536
2018-12-03T13:27:26.322Z,436
2018-12-03T13:28:26.360Z,464
2018-12-03T13:29:26.621Z,592
2018-12-03T13:30:26.134Z,684
2018-12-03T13:31:25.882Z,644
2018-12-03T13:32:25.915Z,500
2018-12-03T13:33:26.467Z,484
2018-12-03T13:34:26.740Z,568
2018-12-03T13:35:26.503Z,684
2018-12-03T13:36:25.998Z,720
2018-12-03T13:37:26.018Z,712
2018-12-03T13:38:26.572Z,740
2018-12-03T13:39:30.209Z,784
2018-12-03T13:40:26.604Z,692
2018-12-03T13:41:26.385Z,644
2018-12-03T13:42:26.652Z,628
2018-12-03T13:43:26.418Z,632
2018-12-03T13:44:26.168Z,652
2018-12-03T13:45:26.719Z,656
2018-12-03T13:46:26.723Z,476
2018-12-03T13:47:26.492Z,412
2018-12-03T13:48:26.257Z,428
2018-12-03T13:49:26.275Z,452
2018-12-03T13:50:26.567Z,492
2018-12-03T13:51:26.572Z,500
2018-12-03T13:52:26.598Z,408
2018-12-03T13:53:26.658Z,380
2018-12-03T13:54:26.661Z,424
2018-12-03T13:55:26.401Z,404
2018-12-03T13:56:26.435Z,420
2018-12-03T13:57:26.706Z,472
2018-12-03T13:58:26.987Z,424
2018-12-03T13:59:27.006Z,476
2018-12-03T14:00:26.516Z,560
2018-12-03T14:01:27.368Z,552
2018-12-03T14:02:27.079Z,464
2018-12-03T14:03:27.341Z,436
2018-12-03T14:04:26.862Z,396
2018-12-03T14:05:26.872Z,296
2018-12-03T14:06:26.911Z,372
2018-12-03T14:07:26.922Z,428
2018-12-03T14:08:26.947Z,424
2018-12-03T14:09:27.231Z,560
2018-12-03T14:10:26.729Z,540
2018-12-03T14:11:27.013Z,532
2018-12-03T14:12:26.765Z,472